sensor_id;sensor_type;location;lat;lon;timestamp;temperature;humidity
38183;DHT22;23991;52.430;10.586;2023-04-03T00:00:57;4.00;63.30
38183;DHT22;23991;52.430;10.586;2023-04-03T00:03:25;4.00;63.30
38183;DHT22;23991;52.430;10.586;2023-04-03T00:05:51;3.90;63.30
38183;DHT22;23991;52.430;10.586;2023-04-03T00:08:17;3.90;63.50
38183;DHT22;23991;52.430;10.586;2023-04-03T00:10:42;3.90;63.50
38183;DHT22;23991;52.430;10.586;2023-04-03T00:13:09;3.80;63.80
38183;DHT22;23991;52.430;10.586;2023-04-03T00:15:36;3.80;63.90
38183;DHT22;23991;52.430;10.586;2023-04-03T00:18:02;3.80;64.00
38183;DHT22;23991;52.430;10.586;2023-04-03T00:20:28;3.80;64.00
38183;DHT22;23991;52.430;10.586;2023-04-03T00:22:54;3.80;64.00
38183;DHT22;23991;52.430;10.586;2023-04-03T00:25:20;3.70;64.20
38183;DHT22;23991;52.430;10.586;2023-04-03T00:27:45;3.60;64.40
38183;DHT22;23991;52.430;10.586;2023-04-03T00:30:14;3.60;64.60
38183;DHT22;23991;52.430;10.586;2023-04-03T00:32:40;3.60;64.70
38183;DHT22;23991;52.430;10.586;2023-04-03T00:35:06;3.60;64.80
38183;DHT22;23991;52.430;10.586;2023-04-03T00:37:32;3.60;64.90
38183;DHT22;23991;52.430;10.586;2023-04-03T00:39:58;3.50;65.10
38183;DHT22;23991;52.430;10.586;2023-04-03T00:42:24;3.50;65.20
38183;DHT22;23991;52.430;10.586;2023-04-03T00:47:21;3.40;65.20
38183;DHT22;23991;52.430;10.586;2023-04-03T00:49:49;3.40;65.30
38183;DHT22;23991;52.430;10.586;2023-04-03T00:52:18;3.40;65.40
38183;DHT22;23991;52.430;10.586;2023-04-03T00:54:46;3.40;65.60
38183;DHT22;23991;52.430;10.586;2023-04-03T00:57:13;3.40;65.60
38183;DHT22;23991;52.430;10.586;2023-04-03T00:59:43;3.40;65.80
38183;DHT22;23991;52.430;10.586;2023-04-03T01:02:10;3.40;65.70
38183;DHT22;23991;52.430;10.586;2023-04-03T01:04:38;3.30;65.70
38183;DHT22;23991;52.430;10.586;2023-04-03T01:07:10;3.30;65.80
38183;DHT22;23991;52.430;10.586;2023-04-03T01:09:38;3.30;65.70
38183;DHT22;23991;52.430;10.586;2023-04-03T01:14:41;3.10;65.80
38183;DHT22;23991;52.430;10.586;2023-04-03T01:25:31;3.00;66.10
38183;DHT22;23991;52.430;10.586;2023-04-03T01:27:56;3.00;66.00
38183;DHT22;23991;52.430;10.586;2023-04-03T01:30:27;2.90;66.10
38183;DHT22;23991;52.430;10.586;2023-04-03T01:32:55;2.90;66.30
38183;DHT22;23991;52.430;10.586;2023-04-03T01:35:21;2.90;66.10
38183;DHT22;23991;52.430;10.586;2023-04-03T01:37:46;2.90;66.20
38183;DHT22;23991;52.430;10.586;2023-04-03T01:40:12;2.90;66.40
38183;DHT22;23991;52.430;10.586;2023-04-03T01:42:37;2.80;66.40
38183;DHT22;23991;52.430;10.586;2023-04-03T01:45:03;2.90;66.60
38183;DHT22;23991;52.430;10.586;2023-04-03T01:47:29;2.80;66.70
38183;DHT22;23991;52.430;10.586;2023-04-03T01:49:54;2.80;66.70
38183;DHT22;23991;52.430;10.586;2023-04-03T01:52:20;2.70;66.80
38183;DHT22;23991;52.430;10.586;2023-04-03T01:54:45;2.70;66.80
38183;DHT22;23991;52.430;10.586;2023-04-03T01:57:11;2.70;67.00
38183;DHT22;23991;52.430;10.586;2023-04-03T01:59:38;2.70;67.10
38183;DHT22;23991;52.430;10.586;2023-04-03T02:02:04;2.60;67.00
38183;DHT22;23991;52.430;10.586;2023-04-03T02:04:30;2.60;67.20
38183;DHT22;23991;52.430;10.586;2023-04-03T02:06:55;2.60;67.30
38183;DHT22;23991;52.430;10.586;2023-04-03T02:09:21;2.50;67.30
38183;DHT22;23991;52.430;10.586;2023-04-03T02:11:46;2.60;67.30
38183;DHT22;23991;52.430;10.586;2023-04-03T02:14:12;2.50;67.60
38183;DHT22;23991;52.430;10.586;2023-04-03T02:16:38;2.40;67.80
38183;DHT22;23991;52.430;10.586;2023-04-03T02:19:03;2.40;67.90
38183;DHT22;23991;52.430;10.586;2023-04-03T02:21:29;2.40;67.90
38183;DHT22;23991;52.430;10.586;2023-04-03T02:23:54;2.40;67.90
38183;DHT22;23991;52.430;10.586;2023-04-03T02:26:20;2.50;67.70
38183;DHT22;23991;52.430;10.586;2023-04-03T02:28:46;2.40;67.80
38183;DHT22;23991;52.430;10.586;2023-04-03T02:31:12;2.30;68.10
38183;DHT22;23991;52.430;10.586;2023-04-03T02:33:38;2.30;68.20
38183;DHT22;23991;52.430;10.586;2023-04-03T02:36:05;2.30;68.30
38183;DHT22;23991;52.430;10.586;2023-04-03T02:38:31;2.30;68.40
38183;DHT22;23991;52.430;10.586;2023-04-03T02:41:01;2.20;68.50
38183;DHT22;23991;52.430;10.586;2023-04-03T02:43:27;2.30;68.50
38183;DHT22;23991;52.430;10.586;2023-04-03T02:45:52;2.20;68.40
38183;DHT22;23991;52.430;10.586;2023-04-03T02:48:18;2.30;68.40
38183;DHT22;23991;52.430;10.586;2023-04-03T02:50:43;2.30;68.30
38183;DHT22;23991;52.430;10.586;2023-04-03T02:53:09;2.20;68.50
38183;DHT22;23991;52.430;10.586;2023-04-03T02:55:34;2.20;68.60
38183;DHT22;23991;52.430;10.586;2023-04-03T02:58:00;2.10;68.80
38183;DHT22;23991;52.430;10.586;2023-04-03T03:00:25;2.10;68.90
38183;DHT22;23991;52.430;10.586;2023-04-03T03:02:51;2.10;68.70
38183;DHT22;23991;52.430;10.586;2023-04-03T03:05:17;2.10;68.60
38183;DHT22;23991;52.430;10.586;2023-04-03T03:07:42;2.10;68.60
38183;DHT22;23991;52.430;10.586;2023-04-03T03:10:08;2.10;68.70
38183;DHT22;23991;52.430;10.586;2023-04-03T03:12:34;2.10;68.70
38183;DHT22;23991;52.430;10.586;2023-04-03T03:14:59;2.00;68.90
38183;DHT22;23991;52.430;10.586;2023-04-03T03:17:25;2.00;69.00
38183;DHT22;23991;52.430;10.586;2023-04-03T03:19:50;2.00;69.00
38183;DHT22;23991;52.430;10.586;2023-04-03T03:22:16;2.00;69.10
38183;DHT22;23991;52.430;10.586;2023-04-03T03:24:42;2.00;69.10
38183;DHT22;23991;52.430;10.586;2023-04-03T03:27:07;2.00;69.20
38183;DHT22;23991;52.430;10.586;2023-04-03T03:29:33;2.00;69.20
38183;DHT22;23991;52.430;10.586;2023-04-03T03:31:58;2.00;69.10
38183;DHT22;23991;52.430;10.586;2023-04-03T03:34:24;1.90;69.10
38183;DHT22;23991;52.430;10.586;2023-04-03T03:36:49;1.90;69.10
38183;DHT22;23991;52.430;10.586;2023-04-03T03:39:15;1.90;69.10
38183;DHT22;23991;52.430;10.586;2023-04-03T03:41:41;1.90;69.10
38183;DHT22;23991;52.430;10.586;2023-04-03T03:44:06;1.90;69.10
38183;DHT22;23991;52.430;10.586;2023-04-03T03:46:32;1.90;69.20
38183;DHT22;23991;52.430;10.586;2023-04-03T03:48:57;1.80;69.40
38183;DHT22;23991;52.430;10.586;2023-04-03T03:51:23;1.80;69.70
38183;DHT22;23991;52.430;10.586;2023-04-03T03:53:48;1.90;69.80
38183;DHT22;23991;52.430;10.586;2023-04-03T03:56:14;1.90;69.60
38183;DHT22;23991;52.430;10.586;2023-04-03T03:58:39;1.80;69.50
38183;DHT22;23991;52.430;10.586;2023-04-03T04:01:05;1.90;69.50
38183;DHT22;23991;52.430;10.586;2023-04-03T04:03:32;1.80;69.60
38183;DHT22;23991;52.430;10.586;2023-04-03T04:05:57;1.80;69.80
38183;DHT22;23991;52.430;10.586;2023-04-03T04:08:23;1.80;69.70
38183;DHT22;23991;52.430;10.586;2023-04-03T04:10:49;1.70;69.80
38183;DHT22;23991;52.430;10.586;2023-04-03T04:13:14;1.70;69.80
38183;DHT22;23991;52.430;10.586;2023-04-03T04:15:40;1.70;69.90
38183;DHT22;23991;52.430;10.586;2023-04-03T04:18:06;1.70;70.00
38183;DHT22;23991;52.430;10.586;2023-04-03T04:20:31;1.70;70.10
38183;DHT22;23991;52.430;10.586;2023-04-03T04:22:57;1.60;69.90
38183;DHT22;23991;52.430;10.586;2023-04-03T04:25:22;1.60;70.00
38183;DHT22;23991;52.430;10.586;2023-04-03T04:27:48;1.60;70.00
38183;DHT22;23991;52.430;10.586;2023-04-03T04:30:13;1.60;70.00
38183;DHT22;23991;52.430;10.586;2023-04-03T04:32:39;1.60;70.30
38183;DHT22;23991;52.430;10.586;2023-04-03T04:35:07;1.60;70.60
38183;DHT22;23991;52.430;10.586;2023-04-03T04:37:33;1.50;70.80
38183;DHT22;23991;52.430;10.586;2023-04-03T04:39:58;1.50;70.90
38183;DHT22;23991;52.430;10.586;2023-04-03T04:42:24;1.40;71.20
38183;DHT22;23991;52.430;10.586;2023-04-03T04:44:51;1.30;71.50
38183;DHT22;23991;52.430;10.586;2023-04-03T04:47:17;1.20;72.00
38183;DHT22;23991;52.430;10.586;2023-04-03T04:49:43;1.20;72.40
38183;DHT22;23991;52.430;10.586;2023-04-03T04:52:08;1.20;72.60
38183;DHT22;23991;52.430;10.586;2023-04-03T04:54:34;1.20;72.60
38183;DHT22;23991;52.430;10.586;2023-04-03T04:56:59;1.20;72.70
38183;DHT22;23991;52.430;10.586;2023-04-03T04:59:25;1.20;72.80
38183;DHT22;23991;52.430;10.586;2023-04-03T05:01:50;1.20;72.80
38183;DHT22;23991;52.430;10.586;2023-04-03T05:04:16;1.20;72.70
38183;DHT22;23991;52.430;10.586;2023-04-03T05:06:42;1.30;72.80
38183;DHT22;23991;52.430;10.586;2023-04-03T05:09:07;1.40;72.60
38183;DHT22;23991;52.430;10.586;2023-04-03T05:11:34;1.40;72.30
38183;DHT22;23991;52.430;10.586;2023-04-03T05:14:00;1.50;72.20
38183;DHT22;23991;52.430;10.586;2023-04-03T05:16:25;1.60;72.10
38183;DHT22;23991;52.430;10.586;2023-04-03T05:18:51;1.60;71.90
38183;DHT22;23991;52.430;10.586;2023-04-03T05:21:17;1.70;71.60
38183;DHT22;23991;52.430;10.586;2023-04-03T05:23:44;1.70;71.50
38183;DHT22;23991;52.430;10.586;2023-04-03T05:26:12;1.80;71.40
38183;DHT22;23991;52.430;10.586;2023-04-03T05:28:38;1.90;71.10
38183;DHT22;23991;52.430;10.586;2023-04-03T05:31:03;1.90;70.90
38183;DHT22;23991;52.430;10.586;2023-04-03T05:33:29;1.90;70.90
38183;DHT22;23991;52.430;10.586;2023-04-03T05:35:54;2.00;70.80
38183;DHT22;23991;52.430;10.586;2023-04-03T05:38:20;2.10;70.70
38183;DHT22;23991;52.430;10.586;2023-04-03T05:40:45;2.20;70.70
38183;DHT22;23991;52.430;10.586;2023-04-03T05:43:11;2.30;70.30
38183;DHT22;23991;52.430;10.586;2023-04-03T05:45:37;2.40;70.00
38183;DHT22;23991;52.430;10.586;2023-04-03T05:48:03;2.50;69.60
38183;DHT22;23991;52.430;10.586;2023-04-03T05:50:28;2.50;69.60
38183;DHT22;23991;52.430;10.586;2023-04-03T05:52:57;2.70;69.40
38183;DHT22;23991;52.430;10.586;2023-04-03T05:55:23;2.80;69.10
38183;DHT22;23991;52.430;10.586;2023-04-03T05:57:49;2.90;68.80
38183;DHT22;23991;52.430;10.586;2023-04-03T06:00:15;2.90;68.40
38183;DHT22;23991;52.430;10.586;2023-04-03T06:02:41;3.10;68.10
38183;DHT22;23991;52.430;10.586;2023-04-03T06:05:07;3.20;67.50
38183;DHT22;23991;52.430;10.586;2023-04-03T06:07:34;3.40;67.30
38183;DHT22;23991;52.430;10.586;2023-04-03T06:10:00;3.40;67.00
38183;DHT22;23991;52.430;10.586;2023-04-03T06:12:27;3.60;66.60
38183;DHT22;23991;52.430;10.586;2023-04-03T06:14:55;3.70;66.10
38183;DHT22;23991;52.430;10.586;2023-04-03T06:17:30;3.90;66.00
38183;DHT22;23991;52.430;10.586;2023-04-03T06:20:01;4.00;65.10
38183;DHT22;23991;52.430;10.586;2023-04-03T06:22:27;4.10;64.80
38183;DHT22;23991;52.430;10.586;2023-04-03T06:24:56;4.30;64.30
38183;DHT22;23991;52.430;10.586;2023-04-03T06:27:22;4.40;63.70
38183;DHT22;23991;52.430;10.586;2023-04-03T06:29:50;4.50;63.60
38183;DHT22;23991;52.430;10.586;2023-04-03T06:32:16;4.60;63.50
38183;DHT22;23991;52.430;10.586;2023-04-03T06:34:41;4.90;62.90
38183;DHT22;23991;52.430;10.586;2023-04-03T06:37:18;5.00;61.70
38183;DHT22;23991;52.430;10.586;2023-04-03T06:39:44;5.20;61.80
38183;DHT22;23991;52.430;10.586;2023-04-03T06:42:10;5.20;61.10
38183;DHT22;23991;52.430;10.586;2023-04-03T06:44:36;5.50;60.70
38183;DHT22;23991;52.430;10.586;2023-04-03T06:47:02;5.60;59.80
38183;DHT22;23991;52.430;10.586;2023-04-03T06:49:27;5.90;59.50
38183;DHT22;23991;52.430;10.586;2023-04-03T06:51:54;6.20;58.80
38183;DHT22;23991;52.430;10.586;2023-04-03T06:54:19;6.40;57.60
38183;DHT22;23991;52.430;10.586;2023-04-03T06:56:45;6.60;57.10
38183;DHT22;23991;52.430;10.586;2023-04-03T06:59:12;6.70;55.80
38183;DHT22;23991;52.430;10.586;2023-04-03T07:01:39;6.60;56.40
38183;DHT22;23991;52.430;10.586;2023-04-03T07:04:04;6.90;55.70
38183;DHT22;23991;52.430;10.586;2023-04-03T07:06:31;7.20;54.90
38183;DHT22;23991;52.430;10.586;2023-04-03T07:08:58;7.70;54.00
38183;DHT22;23991;52.430;10.586;2023-04-03T07:11:24;7.80;54.00
38183;DHT22;23991;52.430;10.586;2023-04-03T07:13:50;8.10;53.10
38183;DHT22;23991;52.430;10.586;2023-04-03T07:16:16;8.30;50.80
38183;DHT22;23991;52.430;10.586;2023-04-03T07:18:42;8.60;51.70
38183;DHT22;23991;52.430;10.586;2023-04-03T07:21:21;8.90;50.50
38183;DHT22;23991;52.430;10.586;2023-04-03T07:23:46;9.30;49.80
38183;DHT22;23991;52.430;10.586;2023-04-03T07:26:12;9.60;49.00
38183;DHT22;23991;52.430;10.586;2023-04-03T07:28:40;9.90;48.00
38183;DHT22;23991;52.430;10.586;2023-04-03T07:31:13;9.70;46.70
38183;DHT22;23991;52.430;10.586;2023-04-03T07:33:43;10.10;47.50
38183;DHT22;23991;52.430;10.586;2023-04-03T07:36:40;10.50;46.00
38183;DHT22;23991;52.430;10.586;2023-04-03T07:39:06;10.40;47.00
38183;DHT22;23991;52.430;10.586;2023-04-03T07:41:33;11.00;45.40
38183;DHT22;23991;52.430;10.586;2023-04-03T07:43:59;11.30;44.60
38183;DHT22;23991;52.430;10.586;2023-04-03T07:46:24;11.70;44.10
38183;DHT22;23991;52.430;10.586;2023-04-03T07:52:13;12.20;42.00
38183;DHT22;23991;52.430;10.586;2023-04-03T07:54:41;12.50;41.70
38183;DHT22;23991;52.430;10.586;2023-04-03T07:57:06;12.50;40.50
38183;DHT22;23991;52.430;10.586;2023-04-03T07:59:32;12.70;40.10
38183;DHT22;23991;52.430;10.586;2023-04-03T08:02:12;13.10;39.10
38183;DHT22;23991;52.430;10.586;2023-04-03T08:04:41;13.40;38.50
38183;DHT22;23991;52.430;10.586;2023-04-03T08:07:07;13.60;38.30
38183;DHT22;23991;52.430;10.586;2023-04-03T08:09:32;13.90;37.70
38183;DHT22;23991;52.430;10.586;2023-04-03T08:11:58;14.20;36.20
38183;DHT22;23991;52.430;10.586;2023-04-03T08:14:27;14.10;34.80
38183;DHT22;23991;52.430;10.586;2023-04-03T08:16:55;14.50;35.30
38183;DHT22;23991;52.430;10.586;2023-04-03T08:19:23;14.50;34.50
38183;DHT22;23991;52.430;10.586;2023-04-03T08:21:56;14.60;33.70
38183;DHT22;23991;52.430;10.586;2023-04-03T08:24:26;14.70;33.00
38183;DHT22;23991;52.430;10.586;2023-04-03T08:26:55;14.50;33.60
38183;DHT22;23991;52.430;10.586;2023-04-03T08:29:21;14.90;32.80
38183;DHT22;23991;52.430;10.586;2023-04-03T08:31:47;15.10;31.90
38183;DHT22;23991;52.430;10.586;2023-04-03T08:34:13;15.30;31.40
38183;DHT22;23991;52.430;10.586;2023-04-03T08:36:39;15.70;30.60
38183;DHT22;23991;52.430;10.586;2023-04-03T08:39:08;15.90;31.10
38183;DHT22;23991;52.430;10.586;2023-04-03T08:41:42;16.20;29.90
38183;DHT22;23991;52.430;10.586;2023-04-03T08:52:58;17.40;28.40
38183;DHT22;23991;52.430;10.586;2023-04-03T08:55:31;17.20;28.50
38183;DHT22;23991;52.430;10.586;2023-04-03T08:58:06;17.20;29.10
38183;DHT22;23991;52.430;10.586;2023-04-03T09:00:43;17.80;28.50
38183;DHT22;23991;52.430;10.586;2023-04-03T09:03:13;18.00;28.20
38183;DHT22;23991;52.430;10.586;2023-04-03T09:05:50;18.30;27.70
38183;DHT22;23991;52.430;10.586;2023-04-03T09:08:27;18.60;26.80
38183;DHT22;23991;52.430;10.586;2023-04-03T09:24:05;19.40;25.80
38183;DHT22;23991;52.430;10.586;2023-04-03T09:26:44;19.00;24.50
38183;DHT22;23991;52.430;10.586;2023-04-03T09:29:17;18.80;25.60
38183;DHT22;23991;52.430;10.586;2023-04-03T09:31:44;18.90;25.90
38183;DHT22;23991;52.430;10.586;2023-04-03T09:34:24;19.20;25.30
38183;DHT22;23991;52.430;10.586;2023-04-03T09:36:53;19.30;24.90
38183;DHT22;23991;52.430;10.586;2023-04-03T09:39:28;18.90;25.70
38183;DHT22;23991;52.430;10.586;2023-04-03T09:42:01;19.80;25.10
38183;DHT22;23991;52.430;10.586;2023-04-03T09:51:42;20.90;23.40
38183;DHT22;23991;52.430;10.586;2023-04-03T09:54:26;20.80;23.50
38183;DHT22;23991;52.430;10.586;2023-04-03T09:56:53;21.20;22.60
38183;DHT22;23991;52.430;10.586;2023-04-03T09:59:20;20.80;23.80
38183;DHT22;23991;52.430;10.586;2023-04-03T10:02:43;20.70;23.80
38183;DHT22;23991;52.430;10.586;2023-04-03T10:04:43;21.00;24.00
38183;DHT22;23991;52.430;10.586;2023-04-03T10:07:36;21.50;23.40
38183;DHT22;23991;52.430;10.586;2023-04-03T10:23:00;21.20;22.70
38183;DHT22;23991;52.430;10.586;2023-04-03T10:25:34;20.30;22.50
38183;DHT22;23991;52.430;10.586;2023-04-03T10:28:05;20.10;23.60
38183;DHT22;23991;52.430;10.586;2023-04-03T10:31:03;20.30;23.70
38183;DHT22;23991;52.430;10.586;2023-04-03T10:33:38;20.70;22.80
38183;DHT22;23991;52.430;10.586;2023-04-03T10:47:07;21.40;22.70
38183;DHT22;23991;52.430;10.586;2023-04-03T10:49:56;22.00;21.10
38183;DHT22;23991;52.430;10.586;2023-04-03T10:52:43;22.40;21.20
38183;DHT22;23991;52.430;10.586;2023-04-03T11:02:17;22.80;20.30
38183;DHT22;23991;52.430;10.586;2023-04-03T11:04:48;22.80;19.90
38183;DHT22;23991;52.430;10.586;2023-04-03T11:07:30;22.80;19.30
38183;DHT22;23991;52.430;10.586;2023-04-03T11:10:02;23.30;19.50
38183;DHT22;23991;52.430;10.586;2023-04-03T11:12:47;23.40;19.70
38183;DHT22;23991;52.430;10.586;2023-04-03T11:15:16;23.30;19.10
38183;DHT22;23991;52.430;10.586;2023-04-03T11:17:50;23.70;19.40
38183;DHT22;23991;52.430;10.586;2023-04-03T11:20:25;23.40;19.20
38183;DHT22;23991;52.430;10.586;2023-04-03T11:36:00;24.20;18.60
38183;DHT22;23991;52.430;10.586;2023-04-03T11:38:33;23.80;18.60
38183;DHT22;23991;52.430;10.586;2023-04-03T11:41:03;23.90;18.90
38183;DHT22;23991;52.430;10.586;2023-04-03T11:43:32;24.30;18.60
38183;DHT22;23991;52.430;10.586;2023-04-03T11:46:00;23.90;18.40
38183;DHT22;23991;52.430;10.586;2023-04-03T12:14:04;22.50;19.80
38183;DHT22;23991;52.430;10.586;2023-04-03T12:16:45;22.10;20.70
38183;DHT22;23991;52.430;10.586;2023-04-03T12:27:03;22.50;19.50
38183;DHT22;23991;52.430;10.586;2023-04-03T12:42:09;23.30;18.90
38183;DHT22;23991;52.430;10.586;2023-04-03T12:44:45;23.50;18.90
38183;DHT22;23991;52.430;10.586;2023-04-03T12:49:53;23.20;19.40
38183;DHT22;23991;52.430;10.586;2023-04-03T12:52:33;23.70;18.60
38183;DHT22;23991;52.430;10.586;2023-04-03T12:55:01;23.50;18.10
38183;DHT22;23991;52.430;10.586;2023-04-03T12:57:30;23.70;17.80
38183;DHT22;23991;52.430;10.586;2023-04-03T12:59:59;23.40;18.20
38183;DHT22;23991;52.430;10.586;2023-04-03T13:02:31;23.70;18.90
38183;DHT22;23991;52.430;10.586;2023-04-03T13:05:07;23.60;18.70
38183;DHT22;23991;52.430;10.586;2023-04-03T13:07:36;23.50;18.90
38183;DHT22;23991;52.430;10.586;2023-04-03T13:12:34;22.70;18.30
38183;DHT22;23991;52.430;10.586;2023-04-03T13:15:11;22.00;19.10
38183;DHT22;23991;52.430;10.586;2023-04-03T13:17:39;21.10;20.30
38183;DHT22;23991;52.430;10.586;2023-04-03T13:20:17;21.50;20.60
38183;DHT22;23991;52.430;10.586;2023-04-03T15:49:53;17.10;24.60
38183;DHT22;23991;52.430;10.586;2023-04-03T15:52:19;16.90;25.00
38183;DHT22;23991;52.430;10.586;2023-04-03T15:54:44;16.60;25.30
38183;DHT22;23991;52.430;10.586;2023-04-03T15:57:10;16.30;25.40
38183;DHT22;23991;52.430;10.586;2023-04-03T15:59:36;15.80;26.70
38183;DHT22;23991;52.430;10.586;2023-04-03T16:02:04;15.80;26.60
38183;DHT22;23991;52.430;10.586;2023-04-03T16:04:32;16.10;26.60
38183;DHT22;23991;52.430;10.586;2023-04-03T16:07:01;16.30;26.30
38183;DHT22;23991;52.430;10.586;2023-04-03T16:09:28;16.30;25.50
38183;DHT22;23991;52.430;10.586;2023-04-03T16:11:54;16.50;25.10
38183;DHT22;23991;52.430;10.586;2023-04-03T16:14:20;16.80;25.30
38183;DHT22;23991;52.430;10.586;2023-04-03T16:16:45;16.60;24.80
38183;DHT22;23991;52.430;10.586;2023-04-03T16:19:13;16.40;25.10
38183;DHT22;23991;52.430;10.586;2023-04-03T16:21:41;16.20;25.60
38183;DHT22;23991;52.430;10.586;2023-04-03T16:24:07;16.00;26.20
38183;DHT22;23991;52.430;10.586;2023-04-03T16:26:33;16.00;26.40
38183;DHT22;23991;52.430;10.586;2023-04-03T16:28:59;15.60;26.80
38183;DHT22;23991;52.430;10.586;2023-04-03T16:31:25;15.30;27.30
38183;DHT22;23991;52.430;10.586;2023-04-03T16:44:11;14.90;27.40
38183;DHT22;23991;52.430;10.586;2023-04-03T16:46:37;14.70;27.80
38183;DHT22;23991;52.430;10.586;2023-04-03T16:49:03;14.80;28.40
38183;DHT22;23991;52.430;10.586;2023-04-03T16:51:29;14.50;29.10
38183;DHT22;23991;52.430;10.586;2023-04-03T16:53:55;14.50;27.70
38183;DHT22;23991;52.430;10.586;2023-04-03T16:56:20;14.50;27.90
38183;DHT22;23991;52.430;10.586;2023-04-03T16:58:47;14.50;27.90
38183;DHT22;23991;52.430;10.586;2023-04-03T17:01:16;14.50;27.50
38183;DHT22;23991;52.430;10.586;2023-04-03T17:13:48;14.30;28.70
38183;DHT22;23991;52.430;10.586;2023-04-03T17:16:15;14.00;29.10
38183;DHT22;23991;52.430;10.586;2023-04-03T17:18:41;14.00;28.60
38183;DHT22;23991;52.430;10.586;2023-04-03T17:21:07;13.70;29.10
38183;DHT22;23991;52.430;10.586;2023-04-03T17:23:34;13.60;29.30
38183;DHT22;23991;52.430;10.586;2023-04-03T17:26:01;13.60;29.60
38183;DHT22;23991;52.430;10.586;2023-04-03T17:28:27;13.40;29.70
38183;DHT22;23991;52.430;10.586;2023-04-03T17:31:00;13.30;29.80
38183;DHT22;23991;52.430;10.586;2023-04-03T17:33:29;13.20;30.30
38183;DHT22;23991;52.430;10.586;2023-04-03T17:35:57;13.10;30.50
38183;DHT22;23991;52.430;10.586;2023-04-03T17:38:23;12.80;31.00
38183;DHT22;23991;52.430;10.586;2023-04-03T17:40:49;12.80;31.20
38183;DHT22;23991;52.430;10.586;2023-04-03T17:43:15;12.50;31.80
38183;DHT22;23991;52.430;10.586;2023-04-03T17:52:25;12.30;32.20
38183;DHT22;23991;52.430;10.586;2023-04-03T17:54:53;12.20;32.90
38183;DHT22;23991;52.430;10.586;2023-04-03T17:57:18;12.00;33.60
38183;DHT22;23991;52.430;10.586;2023-04-03T17:59:44;12.20;33.80
38183;DHT22;23991;52.430;10.586;2023-04-03T18:02:19;11.90;34.20
38183;DHT22;23991;52.430;10.586;2023-04-03T18:04:45;11.80;33.90
38183;DHT22;23991;52.430;10.586;2023-04-03T18:07:11;11.60;34.30
38183;DHT22;23991;52.430;10.586;2023-04-03T18:09:37;11.30;34.80
38183;DHT22;23991;52.430;10.586;2023-04-03T18:12:06;11.30;34.90
38183;DHT22;23991;52.430;10.586;2023-04-03T18:14:33;11.10;35.10
38183;DHT22;23991;52.430;10.586;2023-04-03T18:17:06;11.00;35.80
38183;DHT22;23991;52.430;10.586;2023-04-03T18:19:32;10.90;36.00
38183;DHT22;23991;52.430;10.586;2023-04-03T18:22:01;10.80;36.30
38183;DHT22;23991;52.430;10.586;2023-04-03T18:24:28;10.70;36.30
38183;DHT22;23991;52.430;10.586;2023-04-03T18:33:41;10.40;36.70
38183;DHT22;23991;52.430;10.586;2023-04-03T18:36:07;10.30;37.40
38183;DHT22;23991;52.430;10.586;2023-04-03T18:38:33;9.90;37.80
38183;DHT22;23991;52.430;10.586;2023-04-03T18:40:59;9.90;38.30
38183;DHT22;23991;52.430;10.586;2023-04-03T18:43:27;9.70;38.80
38183;DHT22;23991;52.430;10.586;2023-04-03T18:45:53;9.60;39.30
38183;DHT22;23991;52.430;10.586;2023-04-03T18:48:19;9.70;38.90
38183;DHT22;23991;52.430;10.586;2023-04-03T18:50:45;9.60;39.00
38183;DHT22;23991;52.430;10.586;2023-04-03T19:03:18;9.20;39.40
38183;DHT22;23991;52.430;10.586;2023-04-03T19:05:44;9.20;39.60
38183;DHT22;23991;52.430;10.586;2023-04-03T19:08:11;9.00;40.30
38183;DHT22;23991;52.430;10.586;2023-04-03T19:10:36;9.00;40.50
38183;DHT22;23991;52.430;10.586;2023-04-03T19:13:02;8.90;40.50
38183;DHT22;23991;52.430;10.586;2023-04-03T19:15:28;8.80;40.80
38183;DHT22;23991;52.430;10.586;2023-04-03T19:17:54;8.70;41.00
38183;DHT22;23991;52.430;10.586;2023-04-03T19:20:20;8.60;41.00
38183;DHT22;23991;52.430;10.586;2023-04-03T19:32:34;8.10;41.80
38183;DHT22;23991;52.430;10.586;2023-04-03T19:35:00;7.90;42.10
38183;DHT22;23991;52.430;10.586;2023-04-03T19:37:26;7.90;42.30
38183;DHT22;23991;52.430;10.586;2023-04-03T19:39:52;7.90;42.50
38183;DHT22;23991;52.430;10.586;2023-04-03T19:42:21;7.90;42.60
38183;DHT22;23991;52.430;10.586;2023-04-03T19:44:47;7.70;42.60
38183;DHT22;23991;52.430;10.586;2023-04-03T19:47:14;7.70;42.70
38183;DHT22;23991;52.430;10.586;2023-04-03T19:49:41;7.50;43.20
38183;DHT22;23991;52.430;10.586;2023-04-03T19:52:07;7.50;43.50
38183;DHT22;23991;52.430;10.586;2023-04-03T20:01:51;7.30;44.30
38183;DHT22;23991;52.430;10.586;2023-04-03T20:04:17;7.30;44.40
38183;DHT22;23991;52.430;10.586;2023-04-03T20:06:42;7.20;44.50
38183;DHT22;23991;52.430;10.586;2023-04-03T20:09:08;7.10;44.60
38183;DHT22;23991;52.430;10.586;2023-04-03T20:11:35;7.20;44.40
38183;DHT22;23991;52.430;10.586;2023-04-03T20:14:00;7.10;44.40
38183;DHT22;23991;52.430;10.586;2023-04-03T20:16:26;7.00;44.60
38183;DHT22;23991;52.430;10.586;2023-04-03T20:18:52;7.00;45.00
38183;DHT22;23991;52.430;10.586;2023-04-03T20:21:27;6.90;45.20
38183;DHT22;23991;52.430;10.586;2023-04-03T20:23:54;6.90;45.70
38183;DHT22;23991;52.430;10.586;2023-04-03T20:26:25;6.90;45.80
38183;DHT22;23991;52.430;10.586;2023-04-03T20:28:54;6.90;46.00
38183;DHT22;23991;52.430;10.586;2023-04-03T20:31:21;6.90;46.10
38183;DHT22;23991;52.430;10.586;2023-04-03T20:33:47;6.90;46.50
38183;DHT22;23991;52.430;10.586;2023-04-03T20:42:57;6.60;47.60
38183;DHT22;23991;52.430;10.586;2023-04-03T20:45:22;6.40;47.50
38183;DHT22;23991;52.430;10.586;2023-04-03T20:47:49;6.40;47.90
38183;DHT22;23991;52.430;10.586;2023-04-03T20:50:16;6.40;48.60
38183;DHT22;23991;52.430;10.586;2023-04-03T20:52:43;6.40;48.70
38183;DHT22;23991;52.430;10.586;2023-04-03T20:55:09;6.40;48.50
38183;DHT22;23991;52.430;10.586;2023-04-03T20:57:34;6.40;49.00
38183;DHT22;23991;52.430;10.586;2023-04-03T21:00:01;6.30;49.30
38183;DHT22;23991;52.430;10.586;2023-04-03T21:02:31;6.20;49.60
38183;DHT22;23991;52.430;10.586;2023-04-03T21:04:58;6.10;50.00
38183;DHT22;23991;52.430;10.586;2023-04-03T21:23:36;5.40;51.00
38183;DHT22;23991;52.430;10.586;2023-04-03T21:26:01;5.40;51.20
38183;DHT22;23991;52.430;10.586;2023-04-03T21:28:27;5.40;51.20
38183;DHT22;23991;52.430;10.586;2023-04-03T21:30:53;5.30;51.60
38183;DHT22;23991;52.430;10.586;2023-04-03T21:33:18;5.30;51.40
38183;DHT22;23991;52.430;10.586;2023-04-03T21:35:44;5.40;51.30
38183;DHT22;23991;52.430;10.586;2023-04-03T21:38:10;5.40;51.20
38183;DHT22;23991;52.430;10.586;2023-04-03T21:40:35;5.30;51.10